sensor_id;sensor_type;location;lat;lon;timestamp;pressure;altitude;pressure_sealevel;temperature;humidity
30744;BME280;17486;46.738;7.622;2022-11-12T00:00:28;96764.88;;;8.39;62.72
30744;BME280;17486;46.738;7.622;2022-11-12T00:02:54;96770.03;;;8.39;63.05
30744;BME280;17486;46.738;7.622;2022-11-12T00:05:19;96805.28;;;8.54;62.74
30744;BME280;17486;46.738;7.622;2022-11-12T00:07:44;96759.75;;;8.36;63.02
30744;BME280;17486;46.738;7.622;2022-11-12T00:10:10;96774.34;;;8.40;62.84
30744;BME280;17486;46.738;7.622;2022-11-12T00:12:35;96771.81;;;8.37;62.86
30744;BME280;17486;46.738;7.622;2022-11-12T00:15:01;96779.56;;;8.39;62.84
30744;BME280;17486;46.738;7.622;2022-11-12T00:17:27;96796.63;;;8.54;63.11
30744;BME280;17486;46.738;7.622;2022-11-12T00:19:52;96771.81;;;8.37;63.24
30744;BME280;17486;46.738;7.622;2022-11-12T00:22:19;96794.91;;;8.53;63.12
30744;BME280;17486;46.738;7.622;2022-11-12T00:24:44;96765.81;;;8.35;63.01
30744;BME280;17486;46.738;7.622;2022-11-12T00:27:10;96787.25;;;8.46;63.22
30744;BME280;17486;46.738;7.622;2022-11-12T00:29:36;96786.38;;;8.44;63.10
30744;BME280;17486;46.738;7.622;2022-11-12T00:32:06;96796.75;;;8.48;63.28
30744;BME280;17486;46.738;7.622;2022-11-12T00:34:32;96764.19;;;8.26;63.45
30744;BME280;17486;46.738;7.622;2022-11-12T00:36:58;96798.59;;;8.38;63.94
30744;BME280;17486;46.738;7.622;2022-11-12T00:39:24;96765.97;;;8.24;63.85
30744;BME280;17486;46.738;7.622;2022-11-12T00:41:50;96790.75;;;8.41;63.66
30744;BME280;17486;46.738;7.622;2022-11-12T00:44:15;96792.56;;;8.37;63.75
30744;BME280;17486;46.738;7.622;2022-11-12T00:46:41;96782.28;;;8.31;63.60
30744;BME280;17486;46.738;7.622;2022-11-12T00:49:06;96790.88;;;8.33;63.78
30744;BME280;17486;46.738;7.622;2022-11-12T00:51:32;96767.00;;;8.14;63.90
30744;BME280;17486;46.738;7.622;2022-11-12T00:53:57;96767.84;;;8.14;63.58
30744;BME280;17486;46.738;7.622;2022-11-12T00:56:23;96802.19;;;8.29;63.62
30744;BME280;17486;46.738;7.622;2022-11-12T00:58:48;96796.19;;;8.27;63.75
30744;BME280;17486;46.738;7.622;2022-11-12T01:01:14;96778.31;;;8.08;63.91
30744;BME280;17486;46.738;7.622;2022-11-12T01:03:41;96772.25;;;8.08;63.56
30744;BME280;17486;46.738;7.622;2022-11-12T01:06:09;96807.50;;;8.20;63.71
30744;BME280;17486;46.738;7.622;2022-11-12T01:08:35;96801.53;;;8.14;63.45
30744;BME280;17486;46.738;7.622;2022-11-12T01:13:30;96799.06;;;8.08;63.36
30744;BME280;17486;46.738;7.622;2022-11-12T01:15:55;96797.38;;;8.06;63.45
30744;BME280;17486;46.738;7.622;2022-11-12T01:18:21;96780.13;;;8.02;63.16
30744;BME280;17486;46.738;7.622;2022-11-12T01:20:46;96785.31;;;8.03;62.92
30744;BME280;17486;46.738;7.622;2022-11-12T01:23:11;96782.75;;;7.99;62.62
30744;BME280;17486;46.738;7.622;2022-11-12T01:25:37;96787.91;;;8.02;63.31
30744;BME280;17486;46.738;7.622;2022-11-12T01:28:03;96787.91;;;8.02;63.06
30744;BME280;17486;46.738;7.622;2022-11-12T01:30:28;96781.88;;;8.01;63.00
30744;BME280;17486;46.738;7.622;2022-11-12T01:32:53;96757.06;;;7.86;62.78
30744;BME280;17486;46.738;7.622;2022-11-12T01:35:19;96776.78;;;7.95;62.92
30744;BME280;17486;46.738;7.622;2022-11-12T01:37:44;96753.69;;;7.79;62.93
30744;BME280;17486;46.738;7.622;2022-11-12T01:40:10;96744.22;;;7.78;62.65
30744;BME280;17486;46.738;7.622;2022-11-12T01:42:37;96789.69;;;7.98;62.98
30744;BME280;17486;46.738;7.622;2022-11-12T01:45:11;96751.09;;;7.81;62.93
30744;BME280;17486;46.738;7.622;2022-11-12T01:47:41;96740.75;;;7.78;62.50
30744;BME280;17486;46.738;7.622;2022-11-12T01:50:25;96786.22;;;7.97;62.56
30744;BME280;17486;46.738;7.622;2022-11-12T01:52:56;96785.34;;;8.00;62.81
30744;BME280;17486;46.738;7.622;2022-11-12T01:55:30;96774.16;;;7.98;62.38
30744;BME280;17486;46.738;7.622;2022-11-12T01:58:17;96752.75;;;7.85;62.42
30744;BME280;17486;46.738;7.622;2022-11-12T02:00:44;96782.84;;;7.94;62.70
30744;BME280;17486;46.738;7.622;2022-11-12T02:03:15;96774.22;;;7.92;62.82
30744;BME280;17486;46.738;7.622;2022-11-12T02:05:43;96728.81;;;7.69;62.43
30744;BME280;17486;46.738;7.622;2022-11-12T02:08:11;96780.28;;;7.91;62.73
30744;BME280;17486;46.738;7.622;2022-11-12T02:10:38;96737.56;;;7.59;62.52
30744;BME280;17486;46.738;7.622;2022-11-12T02:13:04;96739.41;;;7.51;62.56
30744;BME280;17486;46.738;7.622;2022-11-12T02:15:48;96767.66;;;7.66;62.76
30744;BME280;17486;46.738;7.622;2022-11-12T02:18:14;96754.03;;;7.55;62.85
30744;BME280;17486;46.738;7.622;2022-11-12T02:20:40;96752.31;;;7.54;62.60
30744;BME280;17486;46.738;7.622;2022-11-12T02:23:06;96754.91;;;7.54;62.62
30744;BME280;17486;46.738;7.622;2022-11-12T02:25:33;96762.59;;;7.60;62.84
30744;BME280;17486;46.738;7.622;2022-11-12T02:27:59;96767.66;;;7.66;62.72
30744;BME280;17486;46.738;7.622;2022-11-12T02:32:59;96751.44;;;7.55;62.68
30744;BME280;17486;46.738;7.622;2022-11-12T02:35:25;96759.09;;;7.61;62.80
30744;BME280;17486;46.738;7.622;2022-11-12T02:37:50;96734.31;;;7.44;62.42
30744;BME280;17486;46.738;7.622;2022-11-12T02:40:16;96758.34;;;7.54;62.19
30744;BME280;17486;46.738;7.622;2022-11-12T02:42:41;96760.91;;;7.56;62.63
30744;BME280;17486;46.738;7.622;2022-11-12T02:45:07;96749.75;;;7.52;62.43
30744;BME280;17486;46.738;7.622;2022-11-12T02:47:33;96748.94;;;7.49;62.47
30744;BME280;17486;46.738;7.622;2022-11-12T02:49:58;96718.97;;;7.30;62.66
30744;BME280;17486;46.738;7.622;2022-11-12T02:52:23;96754.97;;;7.47;62.62
30744;BME280;17486;46.738;7.622;2022-11-12T02:54:49;96748.94;;;7.47;62.11
30744;BME280;17486;46.738;7.622;2022-11-12T02:57:14;96749.81;;;7.46;62.18
30744;BME280;17486;46.738;7.622;2022-11-12T02:59:40;96743.81;;;7.45;62.19
30744;BME280;17486;46.738;7.622;2022-11-12T03:02:05;96704.41;;;7.22;62.28
30744;BME280;17486;46.738;7.622;2022-11-12T03:04:30;96728.38;;;7.36;61.86
30744;BME280;17486;46.738;7.622;2022-11-12T03:06:56;96735.25;;;7.40;62.16
30744;BME280;17486;46.738;7.622;2022-11-12T03:09:21;96706.16;;;7.20;62.11
30744;BME280;17486;46.738;7.622;2022-11-12T03:11:46;96706.97;;;7.25;62.23
30744;BME280;17486;46.738;7.622;2022-11-12T03:14:12;96703.56;;;7.20;62.35
30744;BME280;17486;46.738;7.622;2022-11-12T03:16:37;96733.56;;;7.35;62.02
30744;BME280;17486;46.738;7.622;2022-11-12T03:19:02;96705.31;;;7.19;62.01
30744;BME280;17486;46.738;7.622;2022-11-12T03:21:28;96698.44;;;7.17;62.06
30744;BME280;17486;46.738;7.622;2022-11-12T03:23:53;96699.31;;;7.16;62.19
30744;BME280;17486;46.738;7.622;2022-11-12T03:26:18;96702.78;;;7.14;62.33
30744;BME280;17486;46.738;7.622;2022-11-12T03:28:44;96736.19;;;7.33;62.09
30744;BME280;17486;46.738;7.622;2022-11-12T03:31:09;96708.84;;;7.12;61.77
30744;BME280;17486;46.738;7.622;2022-11-12T03:33:36;96712.28;;;7.11;61.91
30744;BME280;17486;46.738;7.622;2022-11-12T03:36:02;96719.91;;;7.25;61.91
30744;BME280;17486;46.738;7.622;2022-11-12T03:38:28;96706.31;;;7.09;61.77
30744;BME280;17486;46.738;7.622;2022-11-12T03:40:53;96736.38;;;7.16;62.11
30744;BME280;17486;46.738;7.622;2022-11-12T03:43:19;96713.13;;;7.14;61.85
30744;BME280;17486;46.738;7.622;2022-11-12T03:45:44;96708.88;;;7.10;61.99
30744;BME280;17486;46.738;7.622;2022-11-12T03:48:10;96701.97;;;7.09;61.65
30744;BME280;17486;46.738;7.622;2022-11-12T03:50:35;96722.59;;;7.16;61.66
30744;BME280;17486;46.738;7.622;2022-11-12T03:53:00;96685.75;;;6.96;61.97
30744;BME280;17486;46.738;7.622;2022-11-12T03:55:27;96696.06;;;6.98;61.90
30744;BME280;17486;46.738;7.622;2022-11-12T03:57:55;96683.22;;;6.92;61.73
30744;BME280;17486;46.738;7.622;2022-11-12T04:00:22;96704.63;;;7.03;62.01
30744;BME280;17486;46.738;7.622;2022-11-12T04:02:48;96681.53;;;6.86;61.70
30744;BME280;17486;46.738;7.622;2022-11-12T04:05:13;96715.00;;;7.02;62.29
30744;BME280;17486;46.738;7.622;2022-11-12T04:07:59;96686.75;;;6.85;61.78
30744;BME280;17486;46.738;7.622;2022-11-12T04:10:43;96722.78;;;7.00;61.82
30744;BME280;17486;46.738;7.622;2022-11-12T04:13:08;96679.03;;;6.82;61.72
30744;BME280;17486;46.738;7.622;2022-11-12T04:15:57;96711.63;;;6.95;62.54
30744;BME280;17486;46.738;7.622;2022-11-12T04:18:42;96672.19;;;6.77;62.42
30744;BME280;17486;46.738;7.622;2022-11-12T04:21:30;96702.16;;;6.94;61.75
30744;BME280;17486;46.738;7.622;2022-11-12T04:24:15;96703.03;;;6.94;61.81
30744;BME280;17486;46.738;7.622;2022-11-12T04:26:59;96688.41;;;6.92;61.45
30744;BME280;17486;46.738;7.622;2022-11-12T04:29:24;96665.34;;;6.70;61.79
30744;BME280;17486;46.738;7.622;2022-11-12T04:32:08;96693.69;;;6.83;61.76
30744;BME280;17486;46.738;7.622;2022-11-12T04:34:34;96691.13;;;6.79;62.30
30744;BME280;17486;46.738;7.622;2022-11-12T04:37:01;96688.56;;;6.76;62.43
30744;BME280;17486;46.738;7.622;2022-11-12T04:39:27;96697.22;;;6.74;62.50
30744;BME280;17486;46.738;7.622;2022-11-12T04:41:52;96674.91;;;6.65;62.62
30744;BME280;17486;46.738;7.622;2022-11-12T04:44:37;96694.59;;;6.75;62.52
30744;BME280;17486;46.738;7.622;2022-11-12T04:47:20;96650.13;;;6.45;62.34
30744;BME280;17486;46.738;7.622;2022-11-12T04:49:46;96709.28;;;6.75;62.31
30744;BME280;17486;46.738;7.622;2022-11-12T04:52:11;96698.16;;;6.68;62.45
30744;BME280;17486;46.738;7.622;2022-11-12T04:54:36;96700.66;;;6.74;62.48
30744;BME280;17486;46.738;7.622;2022-11-12T04:57:02;96693.78;;;6.72;62.00
30744;BME280;17486;46.738;7.622;2022-11-12T04:59:27;96702.38;;;6.74;62.21
30744;BME280;17486;46.738;7.622;2022-11-12T05:01:53;96669.81;;;6.56;62.38
30744;BME280;17486;46.738;7.622;2022-11-12T05:04:18;96706.72;;;6.70;62.34
30744;BME280;17486;46.738;7.622;2022-11-12T05:06:44;96693.75;;;6.73;62.32
30744;BME280;17486;46.738;7.622;2022-11-12T05:09:15;96662.06;;;6.56;62.51
30744;BME280;17486;46.738;7.622;2022-11-12T05:11:41;96687.88;;;6.62;62.43
30744;BME280;17486;46.738;7.622;2022-11-12T05:14:06;96666.47;;;6.49;62.98
30744;BME280;17486;46.738;7.622;2022-11-12T05:16:31;96698.19;;;6.63;62.70
30744;BME280;17486;46.738;7.622;2022-11-12T05:18:57;96679.25;;;6.61;62.32
30744;BME280;17486;46.738;7.622;2022-11-12T05:21:22;96661.34;;;6.46;63.18
30744;BME280;17486;46.738;7.622;2022-11-12T05:24:06;96677.56;;;6.60;62.62
30744;BME280;17486;46.738;7.622;2022-11-12T05:26:32;96684.41;;;6.63;62.80
30744;BME280;17486;46.738;7.622;2022-11-12T05:28:57;96641.53;;;6.42;62.92
30744;BME280;17486;46.738;7.622;2022-11-12T05:31:22;96646.78;;;6.37;62.82
30744;BME280;17486;46.738;7.622;2022-11-12T05:33:48;96651.16;;;6.29;63.37
30744;BME280;17486;46.738;7.622;2022-11-12T05:36:13;96697.53;;;6.41;63.11
30744;BME280;17486;46.738;7.622;2022-11-12T05:38:38;96655.53;;;6.24;63.12
30744;BME280;17486;46.738;7.622;2022-11-12T05:41:04;96655.53;;;6.24;63.02
30744;BME280;17486;46.738;7.622;2022-11-12T05:43:29;96652.13;;;6.19;63.09
30744;BME280;17486;46.738;7.622;2022-11-12T05:45:55;96650.38;;;6.22;63.17
30744;BME280;17486;46.738;7.622;2022-11-12T05:48:20;96676.91;;;6.38;63.40
30744;BME280;17486;46.738;7.622;2022-11-12T05:50:50;96672.59;;;6.37;63.62
30744;BME280;17486;46.738;7.622;2022-11-12T05:53:15;96645.19;;;6.21;62.88
30744;BME280;17486;46.738;7.622;2022-11-12T05:55:41;96676.94;;;6.37;63.24
30744;BME280;17486;46.738;7.622;2022-11-12T05:58:06;96683.84;;;6.30;63.02
30744;BME280;17486;46.738;7.622;2022-11-12T06:00:32;96686.53;;;6.21;63.93
30744;BME280;17486;46.738;7.622;2022-11-12T06:03:04;96697.78;;;6.15;64.13
30744;BME280;17486;46.738;7.622;2022-11-12T06:05:31;96691.81;;;6.08;63.98
30744;BME280;17486;46.738;7.622;2022-11-12T06:07:56;96690.97;;;6.09;64.35
30744;BME280;17486;46.738;7.622;2022-11-12T06:10:21;96681.47;;;6.10;64.40
30744;BME280;17486;46.738;7.622;2022-11-12T06:12:47;96654.91;;;5.94;64.42
30744;BME280;17486;46.738;7.622;2022-11-12T06:15:12;96678.88;;;6.10;63.99
30744;BME280;17486;46.738;7.622;2022-11-12T06:17:38;96681.44;;;6.14;63.96
30744;BME280;17486;46.738;7.622;2022-11-12T06:20:03;96674.56;;;6.10;63.98
30744;BME280;17486;46.738;7.622;2022-11-12T06:22:29;96667.78;;;6.00;63.98
30744;BME280;17486;46.738;7.622;2022-11-12T06:24:54;96653.13;;;5.96;64.17
30744;BME280;17486;46.738;7.622;2022-11-12T06:27:20;96684.88;;;6.15;63.74
30744;BME280;17486;46.738;7.622;2022-11-12T06:29:45;96682.31;;;6.12;63.73
30744;BME280;17486;46.738;7.622;2022-11-12T06:32:11;96666.06;;;6.01;64.00
30744;BME280;17486;46.738;7.622;2022-11-12T06:34:36;96682.25;;;6.18;64.03
30744;BME280;17486;46.738;7.622;2022-11-12T06:37:02;96655.75;;;5.99;63.63
30744;BME280;17486;46.738;7.622;2022-11-12T06:39:27;96664.31;;;6.01;63.95
30744;BME280;17486;46.738;7.622;2022-11-12T06:41:53;96695.22;;;6.13;63.83
30744;BME280;17486;46.738;7.622;2022-11-12T06:44:19;96683.13;;;6.16;63.47
30744;BME280;17486;46.738;7.622;2022-11-12T06:46:44;96688.28;;;6.19;63.58
30744;BME280;17486;46.738;7.622;2022-11-12T06:49:10;96660.03;;;6.02;64.04
30744;BME280;17486;46.738;7.622;2022-11-12T06:51:35;96692.63;;;6.13;63.38
30744;BME280;17486;46.738;7.622;2022-11-12T06:54:00;96692.59;;;6.20;64.06
30744;BME280;17486;46.738;7.622;2022-11-12T06:56:26;96696.88;;;6.21;63.93
30744;BME280;17486;46.738;7.622;2022-11-12T06:58:51;96700.31;;;6.23;63.65
30744;BME280;17486;46.738;7.622;2022-11-12T07:01:17;96681.44;;;6.13;63.27
30744;BME280;17486;46.738;7.622;2022-11-12T07:03:43;96708.88;;;6.25;64.03
30744;BME280;17486;46.738;7.622;2022-11-12T07:06:11;96678.03;;;6.11;63.67
30744;BME280;17486;46.738;7.622;2022-11-12T07:08:37;96701.97;;;6.27;63.52
30744;BME280;17486;46.738;7.622;2022-11-12T07:11:04;96697.66;;;6.30;63.37
30744;BME280;17486;46.738;7.622;2022-11-12T07:13:31;96688.25;;;6.22;63.75
30744;BME280;17486;46.738;7.622;2022-11-12T07:15:58;96703.66;;;6.34;63.90
30744;BME280;17486;46.738;7.622;2022-11-12T07:18:24;96699.31;;;6.36;63.61
30744;BME280;17486;46.738;7.622;2022-11-12T07:20:49;96707.06;;;6.36;63.41
30744;BME280;17486;46.738;7.622;2022-11-12T07:23:15;96704.53;;;6.33;63.71
30744;BME280;17486;46.738;7.622;2022-11-12T07:25:40;96671.91;;;6.21;63.67
30744;BME280;17486;46.738;7.622;2022-11-12T07:28:05;96711.31;;;6.42;63.84
30744;BME280;17486;46.738;7.622;2022-11-12T07:30:31;96704.44;;;6.41;63.53
30744;BME280;17486;46.738;7.622;2022-11-12T07:32:56;96689.88;;;6.32;63.56
30744;BME280;17486;46.738;7.622;2022-11-12T07:35:22;96660.72;;;6.19;63.92
30744;BME280;17486;46.738;7.622;2022-11-12T07:37:47;96710.41;;;6.47;63.58
30744;BME280;17486;46.738;7.622;2022-11-12T07:40:13;96712.97;;;6.51;63.86
30744;BME280;17486;46.738;7.622;2022-11-12T07:42:39;96691.56;;;6.39;63.48
30744;BME280;17486;46.738;7.622;2022-11-12T07:45:05;96688.06;;;6.43;63.18
30744;BME280;17486;46.738;7.622;2022-11-12T07:47:30;96691.47;;;6.49;63.38
30744;BME280;17486;46.738;7.622;2022-11-12T07:49:56;96718.84;;;6.65;63.71
30744;BME280;17486;46.738;7.622;2022-11-12T07:52:22;96698.31;;;6.53;63.83
30744;BME280;17486;46.738;7.622;2022-11-12T07:54:47;96731.75;;;6.70;63.44
30744;BME280;17486;46.738;7.622;2022-11-12T07:57:13;96732.53;;;6.73;63.72
30744;BME280;17486;46.738;7.622;2022-11-12T07:59:38;96708.56;;;6.59;63.49
30744;BME280;17486;46.738;7.622;2022-11-12T08:02:03;96740.28;;;6.76;63.84
30744;BME280;17486;46.738;7.622;2022-11-12T08:04:29;96730.06;;;6.64;63.02
30744;BME280;17486;46.738;7.622;2022-11-12T08:06:55;96738.63;;;6.71;63.04
30744;BME280;17486;46.738;7.622;2022-11-12T08:09:20;96747.22;;;6.73;63.60
30744;BME280;17486;46.738;7.622;2022-11-12T08:11:45;96733.44;;;6.72;63.74
30744;BME280;17486;46.738;7.622;2022-11-12T08:14:11;96735.06;;;6.83;63.75
30744;BME280;17486;46.738;7.622;2022-11-12T08:16:36;96744.41;;;6.93;63.77
30744;BME280;17486;46.738;7.622;2022-11-12T08:19:02;96749.50;;;7.02;63.75
30744;BME280;17486;46.738;7.622;2022-11-12T08:21:27;96754.63;;;7.05;63.60
30744;BME280;17486;46.738;7.622;2022-11-12T08:23:52;96736.59;;;6.97;63.71
30744;BME280;17486;46.738;7.622;2022-11-12T08:26:19;96761.38;;;7.19;63.48
30744;BME280;17486;46.738;7.622;2022-11-12T08:28:45;96759.63;;;7.21;63.61
30744;BME280;17486;46.738;7.622;2022-11-12T08:31:18;96727.00;;;7.07;63.90
30744;BME280;17486;46.738;7.622;2022-11-12T08:33:45;96763.00;;;7.27;63.82
30744;BME280;17486;46.738;7.622;2022-11-12T08:36:12;96729.50;;;7.13;63.86
30744;BME280;17486;46.738;7.622;2022-11-12T08:38:38;96756.00;;;7.36;63.66
30744;BME280;17486;46.738;7.622;2022-11-12T08:41:06;96723.34;;;7.25;63.60
30744;BME280;17486;46.738;7.622;2022-11-12T08:43:32;96717.25;;;7.29;63.64
30744;BME280;17486;46.738;7.622;2022-11-12T08:45:58;96724.06;;;7.37;63.63
30744;BME280;17486;46.738;7.622;2022-11-12T08:48:25;96759.22;;;7.55;64.20
30744;BME280;17486;46.738;7.622;2022-11-12T08:50:51;96760.00;;;7.60;63.81
30744;BME280;17486;46.738;7.622;2022-11-12T08:53:17;96748.72;;;7.64;63.96
30744;BME280;17486;46.738;7.622;2022-11-12T08:55:42;96736.59;;;7.66;63.73
30744;BME280;17486;46.738;7.622;2022-11-12T08:58:08;96737.38;;;7.74;63.63
30744;BME280;17486;46.738;7.622;2022-11-12T09:00:40;96746.81;;;7.78;64.05
30744;BME280;17486;46.738;7.622;2022-11-12T09:03:12;96746.75;;;7.82;64.03
30744;BME280;17486;46.738;7.622;2022-11-12T09:05:38;96720.06;;;7.76;63.79
30744;BME280;17486;46.738;7.622;2022-11-12T09:08:07;96725.13;;;7.84;64.08
30744;BME280;17486;46.738;7.622;2022-11-12T09:10:33;96726.75;;;7.91;63.77
30744;BME280;17486;46.738;7.622;2022-11-12T09:12:59;96747.13;;;8.13;63.98
30744;BME280;17486;46.738;7.622;2022-11-12T09:15:25;96748.81;;;8.17;63.81
30744;BME280;17486;46.738;7.622;2022-11-12T09:17:58;96729.03;;;8.11;63.80
30744;BME280;17486;46.738;7.622;2022-11-12T09:20:25;96756.41;;;8.29;63.91
30744;BME280;17486;46.738;7.622;2022-11-12T09:22:51;96749.34;;;8.38;63.73
30744;BME280;17486;46.738;7.622;2022-11-12T09:25:17;96728.66;;;8.35;64.00
30744;BME280;17486;46.738;7.622;2022-11-12T09:27:42;96744.78;;;8.54;64.21
30744;BME280;17486;46.738;7.622;2022-11-12T09:30:08;96703.41;;;8.46;64.05
30744;BME280;17486;46.738;7.622;2022-11-12T09:32:34;96731.41;;;8.77;63.81
30744;BME280;17486;46.738;7.622;2022-11-12T09:34:59;96736.38;;;8.88;64.09
30744;BME280;17486;46.738;7.622;2022-11-12T09:37:24;96715.63;;;8.88;64.12
30744;BME280;17486;46.738;7.622;2022-11-12T09:39:50;96713.75;;;8.96;63.79
30744;BME280;17486;46.738;7.622;2022-11-12T09:42:18;96720.34;;;9.12;63.45
30744;BME280;17486;46.738;7.622;2022-11-12T09:45:00;96705.56;;;9.16;63.72
30744;BME280;17486;46.738;7.622;2022-11-12T09:47:31;96701.00;;;9.29;63.19
30744;BME280;17486;46.738;7.622;2022-11-12T09:50:20;96738.50;;;9.55;63.38
30744;BME280;17486;46.738;7.622;2022-11-12T09:52:51;96726.06;;;9.69;63.81
30744;BME280;17486;46.738;7.622;2022-11-12T09:55:27;96722.50;;;9.75;63.63
30744;BME280;17486;46.738;7.622;2022-11-12T09:57:53;96729.00;;;9.93;63.37
30744;BME280;17486;46.738;7.622;2022-11-12T10:00:20;96716.81;;;9.96;62.80
30744;BME280;17486;46.738;7.622;2022-11-12T10:03:18;96722.44;;;10.16;62.96
30744;BME280;17486;46.738;7.622;2022-11-12T10:19:21;96690.06;;;10.95;63.82
30744;BME280;17486;46.738;7.622;2022-11-12T10:21:57;96652.66;;;10.98;62.98
30744;BME280;17486;46.738;7.622;2022-11-12T10:24:32;96660.09;;;11.11;62.52
30744;BME280;17486;46.738;7.622;2022-11-12T10:26:58;96680.31;;;11.33;62.60
30744;BME280;17486;46.738;7.622;2022-11-12T10:32:15;96665.78;;;11.54;61.61
30744;BME280;17486;46.738;7.622;2022-11-12T10:34:41;96668.06;;;11.65;61.54
30744;BME280;17486;46.738;7.622;2022-11-12T10:37:13;96670.19;;;11.81;60.86
30744;BME280;17486;46.738;7.622;2022-11-12T10:39:42;96657.66;;;11.92;60.65
30744;BME280;17486;46.738;7.622;2022-11-12T10:42:12;96662.41;;;12.07;60.06
30744;BME280;17486;46.738;7.622;2022-11-12T10:44:39;96664.50;;;12.23;59.66
30744;BME280;17486;46.738;7.622;2022-11-12T10:47:30;96653.63;;;12.37;59.33
30744;BME280;17486;46.738;7.622;2022-11-12T10:52:28;96641.97;;;12.47;58.39
30744;BME280;17486;46.738;7.622;2022-11-12T10:55:19;96653.75;;;12.59;58.14
30744;BME280;17486;46.738;7.622;2022-11-12T10:57:45;96639.94;;;12.55;57.80
30744;BME280;17486;46.738;7.622;2022-11-12T11:02:36;96636.56;;;12.52;57.08
30744;BME280;17486;46.738;7.622;2022-11-12T11:05:35;96649.38;;;12.59;57.26
30744;BME280;17486;46.738;7.622;2022-11-12T11:08:01;96645.78;;;12.62;56.73
30744;BME280;17486;46.738;7.622;2022-11-12T11:10:33;96635.47;;;12.59;57.20
30744;BME280;17486;46.738;7.622;2022-11-12T11:13:15;96624.66;;;12.44;57.20
30744;BME280;17486;46.738;7.622;2022-11-12T11:16:00;96640.00;;;12.54;57.02
30744;BME280;17486;46.738;7.622;2022-11-12T11:18:27;96625.31;;;12.50;56.60
30744;BME280;17486;46.738;7.622;2022-11-12T11:26:30;96608.47;;;12.35;57.25
30744;BME280;17486;46.738;7.622;2022-11-12T11:31:52;96617.75;;;12.43;57.26
30744;BME280;17486;46.738;7.622;2022-11-12T11:37:15;96596.16;;;12.38;57.29
30744;BME280;17486;46.738;7.622;2022-11-12T11:42:27;96626.00;;;12.56;57.57
30744;BME280;17486;46.738;7.622;2022-11-12T11:47:48;96614.59;;;12.59;57.45
30744;BME280;17486;46.738;7.622;2022-11-12T11:50:26;96581.09;;;12.47;56.99
30744;BME280;17486;46.738;7.622;2022-11-12T11:55:55;96584.59;;;12.46;57.44
30744;BME280;17486;46.738;7.622;2022-11-12T12:06:35;96559.81;;;12.57;57.47
30744;BME280;17486;46.738;7.622;2022-11-12T12:09:12;96597.47;;;12.75;57.29
30744;BME280;17486;46.738;7.622;2022-11-12T12:20:19;96580.63;;;12.84;56.89
30744;BME280;17486;46.738;7.622;2022-11-12T12:22:50;96574.66;;;12.81;56.50
30744;BME280;17486;46.738;7.622;2022-11-12T12:25:21;96581.38;;;12.86;56.72
30744;BME280;17486;46.738;7.622;2022-11-12T12:27:58;96573.53;;;12.88;56.92
30744;BME280;17486;46.738;7.622;2022-11-12T12:30:25;96577.66;;;12.93;56.79
30744;BME280;17486;46.738;7.622;2022-11-12T12:35:39;96564.75;;;12.89;56.71
30744;BME280;17486;46.738;7.622;2022-11-12T12:38:19;96563.97;;;12.87;57.04
30744;BME280;17486;46.738;7.622;2022-11-12T12:40:53;96534.81;;;12.75;57.07
30744;BME280;17486;46.738;7.622;2022-11-12T12:43:40;96556.16;;;12.87;57.04
30744;BME280;17486;46.738;7.622;2022-11-12T12:46:10;96540.69;;;12.81;57.02
30744;BME280;17486;46.738;7.622;2022-11-12T12:48:39;96554.59;;;12.81;56.82
30744;BME280;17486;46.738;7.622;2022-11-12T12:51:06;96530.72;;;12.68;56.58
30744;BME280;17486;46.738;7.622;2022-11-12T12:53:33;96556.50;;;12.77;56.96
30744;BME280;17486;46.738;7.622;2022-11-12T12:56:04;96553.97;;;12.74;57.17
30744;BME280;17486;46.738;7.622;2022-11-12T12:58:44;96549.69;;;12.73;56.82
30744;BME280;17486;46.738;7.622;2022-11-12T13:03:51;96547.28;;;12.67;57.27
30744;BME280;17486;46.738;7.622;2022-11-12T13:09:18;96535.50;;;12.57;57.07
30744;BME280;17486;46.738;7.622;2022-11-12T13:11:48;96550.19;;;12.59;57.42
30744;BME280;17486;46.738;7.622;2022-11-12T13:25:04;96522.66;;;12.51;57.76
30744;BME280;17486;46.738;7.622;2022-11-12T13:35:32;96506.31;;;12.46;58.54
30744;BME280;17486;46.738;7.622;2022-11-12T13:40:51;96502.81;;;12.47;59.21
30744;BME280;17486;46.738;7.622;2022-11-12T13:43:35;96505.34;;;12.48;59.44
30744;BME280;17486;46.738;7.622;2022-11-12T13:53:48;96466.63;;;12.37;59.14
30744;BME280;17486;46.738;7.622;2022-11-12T13:58:53;96483.50;;;12.51;59.12
30744;BME280;17486;46.738;7.622;2022-11-12T14:01:20;96479.88;;;12.55;59.45
30744;BME280;17486;46.738;7.622;2022-11-12T14:03:49;96463.00;;;12.41;59.02
30744;BME280;17486;46.738;7.622;2022-11-12T14:06:23;96485.97;;;12.55;58.83
30744;BME280;17486;46.738;7.622;2022-11-12T14:09:11;96463.00;;;12.41;59.38
30744;BME280;17486;46.738;7.622;2022-11-12T14:11:57;96488.50;;;12.57;59.01
30744;BME280;17486;46.738;7.622;2022-11-12T14:14:38;96465.53;;;12.43;59.06
30744;BME280;17486;46.738;7.622;2022-11-12T14:22:39;96478.56;;;12.67;61.31
30744;BME280;17486;46.738;7.622;2022-11-12T14:25:31;96480.19;;;12.71;60.99
30744;BME280;17486;46.738;7.622;2022-11-12T14:27:56;96470.56;;;12.71;60.38
30744;BME280;17486;46.738;7.622;2022-11-12T14:30:24;96469.38;;;12.80;60.81
30744;BME280;17486;46.738;7.622;2022-11-12T14:32:58;96448.84;;;12.71;60.52
30744;BME280;17486;46.738;7.622;2022-11-12T14:35:25;96472.47;;;12.90;59.65
30744;BME280;17486;46.738;7.622;2022-11-12T14:37:52;96467.19;;;12.91;59.80
30744;BME280;17486;46.738;7.622;2022-11-12T14:40:21;96440.88;;;12.74;59.30
30744;BME280;17486;46.738;7.622;2022-11-12T14:42:48;96445.31;;;12.72;59.17
30744;BME280;17486;46.738;7.622;2022-11-12T14:45:16;96442.09;;;12.65;59.00
30744;BME280;17486;46.738;7.622;2022-11-12T14:47:43;96454.78;;;12.74;59.08
30744;BME280;17486;46.738;7.622;2022-11-12T14:50:26;96450.72;;;12.67;58.74
30744;BME280;17486;46.738;7.622;2022-11-12T14:52:57;96452.78;;;12.59;58.75
30744;BME280;17486;46.738;7.622;2022-11-12T14:55:27;96429.97;;;12.40;58.94
30744;BME280;17486;46.738;7.622;2022-11-12T14:57:54;96453.97;;;12.50;58.88
30744;BME280;17486;46.738;7.622;2022-11-12T15:02:54;96438.81;;;12.36;58.89
30744;BME280;17486;46.738;7.622;2022-11-12T15:05:20;96444.22;;;12.32;59.00